Detalii statie AGROSAMI SACALAZ [00001988]

Toti senzorii

Date Temperatura solului [C]Precipitatii [mm]Voltaj baterie [mV]Leaf Wetness [Min]HC Air temperature [C]HC Relative humidity [%]Punctul de roua [C]
medieminmaxsumaultimatimpmedieminmaxmediemediemin
2019-10-19 22:00:00 0 7000 12.11 11.93 12.26 100 12 11.9
2019-10-19 23:00:00 0 7000 11.65 11.18 11.94 100 11.6 11.1
2019-10-20 00:00:00 0 6992 11.8 11.01 12.16 100 11.7 11
2019-10-20 01:00:00 0 6982 10.67 10.18 11.12 100 10.6 10.1
2019-10-20 02:00:00 0 6982 11.42 10.81 12.07 100 11.3 10.8
2019-10-20 03:00:00 0 6982 11.26 10.62 12.11 100 11.2 10.6
2019-10-20 04:00:00 0 6972 11.91 11.57 12.14 100 11.8 11.5
2019-10-20 05:00:00 0 6982 11.36 11.06 11.52 100 11.3 11
2019-10-20 06:00:00 0 6972 11.46 11.16 11.81 100 11.4 11.1
2019-10-20 07:00:00 0 6962 11.42 11 11.81 100 11.3 11
2019-10-20 08:00:00 0 7010 11.25 10.96 11.81 100 11.2 10.9
2019-10-20 09:00:00 0 7166 13.66 12 15.99 99.86 13.6 12
2019-10-20 10:00:00 0 7314 17.79 16.49 18.71 81.75 14.4 13.6
2019-10-20 11:00:00 0 7324 20.53 18.75 23.12 67.63 14.1 13.5
2019-10-20 12:00:00 0 7324 25.22 23.88 26.61 50 13.8 13.3
2019-10-20 13:00:00 0 7314 26.78 26.1 27.47 45.81 13.9 13.4
2019-10-20 14:00:00 0 7314 27.56 26.21 28.39 41.86 13.2 12.8
2019-10-20 15:00:00 0 7314 28.19 27.74 28.54 39.93 13 12.7
2019-10-20 16:00:00 0 7314 27.21 26.55 27.61 40.59 12.4 11.9
2019-10-20 17:00:00 0 7206 24.81 22.84 26.46 45.28 11.8 11.6
2019-10-20 18:00:00 0 7060 20.29 17.97 22.4 57.21 11.3 10.8
2019-10-20 19:00:00 0 7020 16.84 15.63 17.69 68.94 10.9 10.6
2019-10-20 20:00:00 0 7010 14.66 13.86 15.21 79.9 11.1 10.8
2019-10-20 21:00:00 0 7010 13.71 13.37 14.08 89.83 11.9 11.5
2019-10-20 22:00:00 0 7000 13.38 12.86 13.64 92.19 12 11.7
2019-10-20 23:00:00 0 6992 12.24 11.93 12.83 99.53 12.1 11.9
2019-10-21 00:00:00 0 6982 12.65 12.16 13.05 99.24 12.4 12.1
2019-10-21 01:00:00 0 6982 11.47 11.03 12.29 99.93 11.4 11
2019-10-21 02:00:00 0 6972 10.86 10.53 11.19 100 10.8 10.5
2019-10-21 03:00:00 0 6962 10.62 10.31 11.49 100 10.5 10.3
2019-10-21 04:00:00 0 6962 11.54 11.25 11.69 100 11.5 11.2
2019-10-21 05:00:00 0 6972 11.58 11.51 11.67 100 11.5 11.5
2019-10-21 06:00:00 0 6962 11.1 10.41 11.55 100 11 10.4
2019-10-21 07:00:00 0 6952 10.97 10.4 11.29 100 10.9 10.4
2019-10-21 08:00:00 0 6982 10.76 10.46 11.24 100 10.7 10.4
2019-10-21 09:00:00 0 7050 13.05 11.45 14.92 99.98 13 11.4
2019-10-21 10:00:00 0 7176 17.49 15.62 19.35 81.67 14.1 13.7
2019-10-21 11:00:00 0 7324 22 19.99 24.21 63.18 14.4 14
2019-10-21 12:00:00 0 7324 25.99 24.57 26.98 51.02 14.8 14.6
2019-10-21 13:00:00 0 7314 27.92 27.16 28.81 46.23 15 14.4
2019-10-21 14:00:00 0 7314 28.4 27.61 29.23 43.03 14.4 14
2019-10-21 15:00:00 0 7314 28.46 27.95 29.02 42.39 14.2 13.5
2019-10-21 16:00:00 0 7324 28.18 27.64 28.99 41.28 13.5 13.1
2019-10-21 17:00:00 0 7304 25.81 22.91 27.95 46.67 13.2 12.7
2019-10-21 18:00:00 0 7050 20.15 18.23 22.48 60.24 12 11.5